GMTN/TTU METAR and TAF weather

Enter ICAO airport designator
Station Type Date Time Source
GMTN METAR 2020/09/18 06:00 UTC NOAA

GMTN 180600Z 33008KT 9999 SCT030 BKN100 20/19 Q1012 NOSIG


Station Type Date Time Source
GMTN Decoded METAR 2020/09/18 06:00 UTC NOAA

Tetuan / Sania Ramel, Morocco (GMTN) 35-35N 005-20W 10M
Sep 18, 2020 - 02:00 AM EDT / 2020.09.18 0600 UTC
Wind: from the NNW (330 degrees) at 9 MPH (8 KT):0
Visibility: greater than 7 mile(s):0
Sky conditions: mostly cloudy
Temperature: 68 F (20 C)
Dew Point: 66 F (19 C)
Relative Humidity: 93%
Pressure (altimeter): 29.88 in. Hg (1012 hPa)
ob: GMTN 180600Z 33008KT 9999 SCT030 BKN100 20/19 Q1012 NOSIG
cycle: 6

Station Type Date Time Source
GMTN TAF UTC NOAA

Error!

Example: see airport list